Kendall, Florida
Current Conditions -  °F | °C
As of 5:53 PM on Wednesday 26 Nov 2014 (Local Time) from KTMB Reporting Station
Scattered Clouds Scattered Clouds  
Wind Chill: 63°   Ceiling: Unl
Heat Index: 63°   Visibility: 10mi
Dew Point: 51°   Wind: 16mph
Humidity: 65%   Direction: 360°N
Pressure: 30.13"   Gusts: NA
Location:  25.65°N, 80.33°W
Report Text: KTMB 262253Z 36014KT 10SM SCT085 17/11 A3013 RMK AO2 SLP201 T01720106
Loading
Personal Weather Stations






























Interactive Weather Map New forecast layout! Learn more

10-Day Weather Forecast

Advertisements
Track Severe Weather on mobile